sensor_id;sensor_type;location;lat;lon;timestamp;temperature;humidity
64670;DHT22;51080;51.690;5.174;2023-04-03T00:03:07;4.90;71.90
64670;DHT22;51080;51.690;5.174;2023-04-03T00:08:52;4.90;72.00
64670;DHT22;51080;51.690;5.174;2023-04-03T00:14:36;4.90;72.10
64670;DHT22;51080;51.690;5.174;2023-04-03T00:20:22;4.80;72.20
64670;DHT22;51080;51.690;5.174;2023-04-03T00:26:06;4.80;72.10
64670;DHT22;51080;51.690;5.174;2023-04-03T00:31:51;4.70;72.20
64670;DHT22;51080;51.690;5.174;2023-04-03T00:37:36;4.70;72.10
64670;DHT22;51080;51.690;5.174;2023-04-03T00:43:23;4.70;72.10
64670;DHT22;51080;51.690;5.174;2023-04-03T00:49:08;4.70;72.20
64670;DHT22;51080;51.690;5.174;2023-04-03T00:54:57;4.60;72.20
64670;DHT22;51080;51.690;5.174;2023-04-03T01:00:46;4.60;72.20
64670;DHT22;51080;51.690;5.174;2023-04-03T01:06:37;4.50;72.20
64670;DHT22;51080;51.690;5.174;2023-04-03T01:12:25;4.50;72.30
64670;DHT22;51080;51.690;5.174;2023-04-03T01:18:10;4.50;72.20
64670;DHT22;51080;51.690;5.174;2023-04-03T01:24:22;4.50;72.30
64670;DHT22;51080;51.690;5.174;2023-04-03T01:30:08;4.40;72.30
64670;DHT22;51080;51.690;5.174;2023-04-03T01:36:29;4.40;72.50
64670;DHT22;51080;51.690;5.174;2023-04-03T01:42:14;4.40;72.60
64670;DHT22;51080;51.690;5.174;2023-04-03T01:47:59;4.40;72.30
64670;DHT22;51080;51.690;5.174;2023-04-03T01:54:13;4.30;72.50
64670;DHT22;51080;51.690;5.174;2023-04-03T01:59:58;4.30;72.80
64670;DHT22;51080;51.690;5.174;2023-04-03T02:05:41;4.20;72.50
64670;DHT22;51080;51.690;5.174;2023-04-03T02:11:56;4.20;72.50
64670;DHT22;51080;51.690;5.174;2023-04-03T02:17:41;4.20;73.00
64670;DHT22;51080;51.690;5.174;2023-04-03T02:23:26;4.20;72.50
64670;DHT22;51080;51.690;5.174;2023-04-03T02:29:40;4.10;72.60
64670;DHT22;51080;51.690;5.174;2023-04-03T02:35:56;4.10;73.00
64670;DHT22;51080;51.690;5.174;2023-04-03T02:41:41;4.10;73.10
64670;DHT22;51080;51.690;5.174;2023-04-03T02:47:27;4.00;72.70
64670;DHT22;51080;51.690;5.174;2023-04-03T02:53:14;4.00;72.80
64670;DHT22;51080;51.690;5.174;2023-04-03T02:58:58;3.90;72.90
64670;DHT22;51080;51.690;5.174;2023-04-03T03:04:42;3.90;72.90
64670;DHT22;51080;51.690;5.174;2023-04-03T03:10:26;3.80;73.00
64670;DHT22;51080;51.690;5.174;2023-04-03T03:16:12;3.80;73.00
64670;DHT22;51080;51.690;5.174;2023-04-03T03:21:57;3.80;73.10
64670;DHT22;51080;51.690;5.174;2023-04-03T03:27:42;3.80;73.10
64670;DHT22;51080;51.690;5.174;2023-04-03T03:33:26;3.70;73.30
64670;DHT22;51080;51.690;5.174;2023-04-03T03:39:12;3.70;73.20
64670;DHT22;51080;51.690;5.174;2023-04-03T03:44:57;3.70;73.20
64670;DHT22;51080;51.690;5.174;2023-04-03T03:50:42;3.70;73.20
64670;DHT22;51080;51.690;5.174;2023-04-03T03:56:26;3.60;73.30
64670;DHT22;51080;51.690;5.174;2023-04-03T04:02:10;3.60;73.40
64670;DHT22;51080;51.690;5.174;2023-04-03T04:07:55;3.60;73.30
64670;DHT22;51080;51.690;5.174;2023-04-03T04:14:10;3.50;73.40
64670;DHT22;51080;51.690;5.174;2023-04-03T04:19:54;3.50;74.10
64670;DHT22;51080;51.690;5.174;2023-04-03T04:26:09;3.50;73.40
64670;DHT22;51080;51.690;5.174;2023-04-03T04:31:54;3.50;74.10
64670;DHT22;51080;51.690;5.174;2023-04-03T04:37:38;3.40;73.50
64670;DHT22;51080;51.690;5.174;2023-04-03T04:43:53;3.40;73.70
64670;DHT22;51080;51.690;5.174;2023-04-03T04:49:38;3.40;74.30
64670;DHT22;51080;51.690;5.174;2023-04-03T04:55:22;3.30;73.70
64670;DHT22;51080;51.690;5.174;2023-04-03T05:01:08;3.30;73.90
64670;DHT22;51080;51.690;5.174;2023-04-03T05:06:52;3.20;74.00
64670;DHT22;51080;51.690;5.174;2023-04-03T05:13:07;3.20;74.20
64670;DHT22;51080;51.690;5.174;2023-04-03T05:18:54;3.20;75.00
64670;DHT22;51080;51.690;5.174;2023-04-03T05:24:39;3.20;74.20
64670;DHT22;51080;51.690;5.174;2023-04-03T05:30:26;3.10;74.40
64670;DHT22;51080;51.690;5.174;2023-04-03T05:36:10;3.10;74.50
64670;DHT22;51080;51.690;5.174;2023-04-03T05:41:54;3.10;74.50
64670;DHT22;51080;51.690;5.174;2023-04-03T05:47:39;3.10;74.50
64670;DHT22;51080;51.690;5.174;2023-04-03T05:53:27;3.10;74.60
64670;DHT22;51080;51.690;5.174;2023-04-03T05:59:12;3.10;74.40
64670;DHT22;51080;51.690;5.174;2023-04-03T06:04:55;3.10;74.30
64670;DHT22;51080;51.690;5.174;2023-04-03T06:11:10;3.10;74.50
64670;DHT22;51080;51.690;5.174;2023-04-03T06:16:55;3.20;74.70
64670;DHT22;51080;51.690;5.174;2023-04-03T06:23:09;3.20;74.50
64670;DHT22;51080;51.690;5.174;2023-04-03T06:28:54;3.20;74.90
64670;DHT22;51080;51.690;5.174;2023-04-03T06:34:38;3.20;74.30
64670;DHT22;51080;51.690;5.174;2023-04-03T06:40:24;3.20;74.20
64670;DHT22;51080;51.690;5.174;2023-04-03T06:46:20;3.20;74.10
64670;DHT22;51080;51.690;5.174;2023-04-03T06:52:05;3.20;73.90
64670;DHT22;51080;51.690;5.174;2023-04-03T06:58:19;3.30;73.90
64670;DHT22;51080;51.690;5.174;2023-04-03T07:04:04;3.30;74.00
64670;DHT22;51080;51.690;5.174;2023-04-03T07:09:49;3.40;73.80
64670;DHT22;51080;51.690;5.174;2023-04-03T07:15:35;3.40;73.70
64670;DHT22;51080;51.690;5.174;2023-04-03T07:21:19;3.50;73.70
64670;DHT22;51080;51.690;5.174;2023-04-03T07:27:03;3.50;73.60
64670;DHT22;51080;51.690;5.174;2023-04-03T07:32:48;3.60;73.50
64670;DHT22;51080;51.690;5.174;2023-04-03T07:38:33;3.70;73.60
64670;DHT22;51080;51.690;5.174;2023-04-03T07:44:17;3.70;73.90
64670;DHT22;51080;51.690;5.174;2023-04-03T07:50:32;3.80;74.10
64670;DHT22;51080;51.690;5.174;2023-04-03T07:56:17;3.90;74.10
64670;DHT22;51080;51.690;5.174;2023-04-03T08:02:02;4.00;74.00
64670;DHT22;51080;51.690;5.174;2023-04-03T08:07:47;4.10;74.00
64670;DHT22;51080;51.690;5.174;2023-04-03T08:13:33;4.20;74.10
64670;DHT22;51080;51.690;5.174;2023-04-03T08:19:17;4.30;72.80
64670;DHT22;51080;51.690;5.174;2023-04-03T08:25:01;4.40;73.00
64670;DHT22;51080;51.690;5.174;2023-04-03T08:30:46;4.50;72.00
64670;DHT22;51080;51.690;5.174;2023-04-03T08:36:31;4.60;71.70
64670;DHT22;51080;51.690;5.174;2023-04-03T08:48:33;4.90;69.70
64670;DHT22;51080;51.690;5.174;2023-04-03T08:54:25;5.10;68.40
64670;DHT22;51080;51.690;5.174;2023-04-03T09:00:19;5.40;69.00
64670;DHT22;51080;51.690;5.174;2023-04-03T09:12:42;6.10;63.60
64670;DHT22;51080;51.690;5.174;2023-04-03T09:18:37;6.90;62.10
64670;DHT22;51080;51.690;5.174;2023-04-03T09:24:25;8.90;59.90
64670;DHT22;51080;51.690;5.174;2023-04-03T09:30:19;11.30;58.90
64670;DHT22;51080;51.690;5.174;2023-04-03T09:36:05;13.00;53.90
64670;DHT22;51080;51.690;5.174;2023-04-03T09:42:14;14.40;52.60
64670;DHT22;51080;51.690;5.174;2023-04-03T09:48:17;15.40;48.60
64670;DHT22;51080;51.690;5.174;2023-04-03T10:06:04;17.70;46.50
64670;DHT22;51080;51.690;5.174;2023-04-03T10:12:06;18.20;43.00
64670;DHT22;51080;51.690;5.174;2023-04-03T10:18:02;18.60;43.80
64670;DHT22;51080;51.690;5.174;2023-04-03T10:23:56;19.10;41.40
64670;DHT22;51080;51.690;5.174;2023-04-03T10:42:22;20.10;40.90
64670;DHT22;51080;51.690;5.174;2023-04-03T10:54:10;20.60;39.70
64670;DHT22;51080;51.690;5.174;2023-04-03T11:00:09;21.00;38.60
64670;DHT22;51080;51.690;5.174;2023-04-03T11:05:55;21.40;36.80
64670;DHT22;51080;51.690;5.174;2023-04-03T11:11:42;21.80;36.80
64670;DHT22;51080;51.690;5.174;2023-04-03T11:17:36;22.10;36.00
64670;DHT22;51080;51.690;5.174;2023-04-03T11:23:30;22.40;34.80
64670;DHT22;51080;51.690;5.174;2023-04-03T11:29:23;22.50;35.20
64670;DHT22;51080;51.690;5.174;2023-04-03T11:35:09;22.90;33.10
64670;DHT22;51080;51.690;5.174;2023-04-03T11:40:56;23.20;34.30
64670;DHT22;51080;51.690;5.174;2023-04-03T11:46:54;23.40;33.20
64670;DHT22;51080;51.690;5.174;2023-04-03T11:58:34;24.10;31.70
64670;DHT22;51080;51.690;5.174;2023-04-03T12:04:23;24.20;33.20
64670;DHT22;51080;51.690;5.174;2023-04-03T12:10:16;24.40;32.60
64670;DHT22;51080;51.690;5.174;2023-04-03T12:16:03;24.70;32.30
64670;DHT22;51080;51.690;5.174;2023-04-03T12:27:45;24.20;31.20
64670;DHT22;51080;51.690;5.174;2023-04-03T12:34:09;24.10;31.60
64670;DHT22;51080;51.690;5.174;2023-04-03T12:40:15;23.80;31.90
64670;DHT22;51080;51.690;5.174;2023-04-03T12:46:04;23.50;31.60
64670;DHT22;51080;51.690;5.174;2023-04-03T12:51:48;23.20;32.20
64670;DHT22;51080;51.690;5.174;2023-04-03T12:57:32;22.90;32.50
64670;DHT22;51080;51.690;5.174;2023-04-03T13:03:25;22.60;31.60
64670;DHT22;51080;51.690;5.174;2023-04-03T13:09:24;22.50;32.30
64670;DHT22;51080;51.690;5.174;2023-04-03T13:15:16;22.70;32.30
64670;DHT22;51080;51.690;5.174;2023-04-03T13:21:07;22.80;33.30
64670;DHT22;51080;51.690;5.174;2023-04-03T13:26:52;22.90;33.00
64670;DHT22;51080;51.690;5.174;2023-04-03T13:32:37;22.80;32.10
64670;DHT22;51080;51.690;5.174;2023-04-03T13:38:26;22.20;32.60
64670;DHT22;51080;51.690;5.174;2023-04-03T13:44:29;21.60;32.50
64670;DHT22;51080;51.690;5.174;2023-04-03T13:50:21;21.10;33.30
64670;DHT22;51080;51.690;5.174;2023-04-03T13:56:13;20.30;33.80
64670;DHT22;51080;51.690;5.174;2023-04-03T14:02:33;19.70;33.80
64670;DHT22;51080;51.690;5.174;2023-04-03T14:08:18;18.80;32.80
64670;DHT22;51080;51.690;5.174;2023-04-03T14:14:09;18.10;34.10
64670;DHT22;51080;51.690;5.174;2023-04-03T14:19:55;17.70;35.10
64670;DHT22;51080;51.690;5.174;2023-04-03T14:25:39;17.20;34.80
64670;DHT22;51080;51.690;5.174;2023-04-03T14:31:24;16.70;35.40
64670;DHT22;51080;51.690;5.174;2023-04-03T14:37:16;16.40;35.80
64670;DHT22;51080;51.690;5.174;2023-04-03T14:43:01;16.10;36.60
64670;DHT22;51080;51.690;5.174;2023-04-03T14:48:45;15.90;36.60
64670;DHT22;51080;51.690;5.174;2023-04-03T14:54:29;15.60;35.40
64670;DHT22;51080;51.690;5.174;2023-04-03T15:00:16;15.40;35.60
64670;DHT22;51080;51.690;5.174;2023-04-03T15:05:59;15.40;35.60
64670;DHT22;51080;51.690;5.174;2023-04-03T15:12:14;15.30;35.90
64670;DHT22;51080;51.690;5.174;2023-04-03T15:17:58;15.20;35.80
64670;DHT22;51080;51.690;5.174;2023-04-03T15:23:43;15.10;36.10
64670;DHT22;51080;51.690;5.174;2023-04-03T15:29:26;15.10;36.60
64670;DHT22;51080;51.690;5.174;2023-04-03T15:35:11;15.00;37.30
64670;DHT22;51080;51.690;5.174;2023-04-03T15:40:56;14.80;37.10
64670;DHT22;51080;51.690;5.174;2023-04-03T15:46:41;14.80;36.00
64670;DHT22;51080;51.690;5.174;2023-04-03T15:52:26;14.60;36.90
64670;DHT22;51080;51.690;5.174;2023-04-03T15:58:10;14.50;37.60
64670;DHT22;51080;51.690;5.174;2023-04-03T16:03:53;14.40;37.60
64670;DHT22;51080;51.690;5.174;2023-04-03T16:09:37;14.30;37.10
64670;DHT22;51080;51.690;5.174;2023-04-03T16:15:21;14.10;37.30
64670;DHT22;51080;51.690;5.174;2023-04-03T16:21:06;14.00;37.90
64670;DHT22;51080;51.690;5.174;2023-04-03T16:26:51;13.90;38.80
64670;DHT22;51080;51.690;5.174;2023-04-03T16:32:35;13.70;39.00
64670;DHT22;51080;51.690;5.174;2023-04-03T16:38:20;13.40;39.10
64670;DHT22;51080;51.690;5.174;2023-04-03T16:44:04;13.20;39.60
64670;DHT22;51080;51.690;5.174;2023-04-03T16:49:47;12.90;40.00
64670;DHT22;51080;51.690;5.174;2023-04-03T16:55:31;12.70;39.80
64670;DHT22;51080;51.690;5.174;2023-04-03T17:01:17;12.40;39.90
64670;DHT22;51080;51.690;5.174;2023-04-03T17:07:01;12.20;40.10
64670;DHT22;51080;51.690;5.174;2023-04-03T17:12:44;12.00;40.70
64670;DHT22;51080;51.690;5.174;2023-04-03T17:18:32;11.90;41.10
64670;DHT22;51080;51.690;5.174;2023-04-03T17:24:24;11.80;41.30
64670;DHT22;51080;51.690;5.174;2023-04-03T17:30:12;11.60;41.30
64670;DHT22;51080;51.690;5.174;2023-04-03T17:35:57;11.40;41.40
64670;DHT22;51080;51.690;5.174;2023-04-03T17:41:41;11.20;41.70
64670;DHT22;51080;51.690;5.174;2023-04-03T17:47:24;11.00;42.30
64670;DHT22;51080;51.690;5.174;2023-04-03T17:53:08;10.80;43.00
64670;DHT22;51080;51.690;5.174;2023-04-03T17:59:22;10.60;43.70
64670;DHT22;51080;51.690;5.174;2023-04-03T18:05:06;10.40;44.00
64670;DHT22;51080;51.690;5.174;2023-04-03T18:10:50;10.30;43.10
64670;DHT22;51080;51.690;5.174;2023-04-03T18:16:34;10.10;43.50
64670;DHT22;51080;51.690;5.174;2023-04-03T18:22:20;9.90;43.80
64670;DHT22;51080;51.690;5.174;2023-04-03T18:28:06;9.80;44.10
64670;DHT22;51080;51.690;5.174;2023-04-03T18:33:50;9.70;44.30
64670;DHT22;51080;51.690;5.174;2023-04-03T18:39:33;9.70;44.70
64670;DHT22;51080;51.690;5.174;2023-04-03T18:45:48;9.50;44.40
64670;DHT22;51080;51.690;5.174;2023-04-03T18:51:33;9.40;44.80
64670;DHT22;51080;51.690;5.174;2023-04-03T18:57:18;9.20;45.10
64670;DHT22;51080;51.690;5.174;2023-04-03T19:03:03;9.00;45.70
64670;DHT22;51080;51.690;5.174;2023-04-03T19:08:49;8.90;45.60
64670;DHT22;51080;51.690;5.174;2023-04-03T19:14:34;8.80;46.10
64670;DHT22;51080;51.690;5.174;2023-04-03T19:20:20;8.70;46.50
64670;DHT22;51080;51.690;5.174;2023-04-03T19:26:07;8.60;46.80
64670;DHT22;51080;51.690;5.174;2023-04-03T19:31:53;8.50;46.80
64670;DHT22;51080;51.690;5.174;2023-04-03T19:38:07;8.30;46.70
64670;DHT22;51080;51.690;5.174;2023-04-03T19:43:53;8.20;47.00
64670;DHT22;51080;51.690;5.174;2023-04-03T19:50:09;8.20;46.90
64670;DHT22;51080;51.690;5.174;2023-04-03T19:55:55;8.10;47.20
64670;DHT22;51080;51.690;5.174;2023-04-03T20:02:10;8.00;47.00
64670;DHT22;51080;51.690;5.174;2023-04-03T20:07:54;7.90;47.30
64670;DHT22;51080;51.690;5.174;2023-04-03T20:13:39;7.80;47.30
64670;DHT22;51080;51.690;5.174;2023-04-03T20:19:24;7.70;47.50
64670;DHT22;51080;51.690;5.174;2023-04-03T20:25:10;7.60;47.60
64670;DHT22;51080;51.690;5.174;2023-04-03T20:30:55;7.50;47.80
64670;DHT22;51080;51.690;5.174;2023-04-03T20:36:41;7.50;47.90
64670;DHT22;51080;51.690;5.174;2023-04-03T20:42:26;7.40;48.20
64670;DHT22;51080;51.690;5.174;2023-04-03T20:48:10;7.30;48.40
64670;DHT22;51080;51.690;5.174;2023-04-03T20:53:55;7.20;48.40
64670;DHT22;51080;51.690;5.174;2023-04-03T20:59:41;7.20;48.50
64670;DHT22;51080;51.690;5.174;2023-04-03T21:05:26;7.10;48.70
64670;DHT22;51080;51.690;5.174;2023-04-03T21:23:47;6.90;49.80
64670;DHT22;51080;51.690;5.174;2023-04-03T21:29:32;6.80;50.10
64670;DHT22;51080;51.690;5.174;2023-04-03T21:35:16;6.80;50.10
64670;DHT22;51080;51.690;5.174;2023-04-03T21:41:01;6.60;50.30
64670;DHT22;51080;51.690;5.174;2023-04-03T21:47:16;6.60;50.50
64670;DHT22;51080;51.690;5.174;2023-04-03T21:53:02;6.50;50.90
64670;DHT22;51080;51.690;5.174;2023-04-03T21:58:46;6.40;50.40
64670;DHT22;51080;51.690;5.174;2023-04-03T22:04:29;6.30;50.60
64670;DHT22;51080;51.690;5.174;2023-04-03T22:10:14;6.30;50.60
64670;DHT22;51080;51.690;5.174;2023-04-03T22:15:59;6.30;50.70
64670;DHT22;51080;51.690;5.174;2023-04-03T22:21:42;6.20;50.90
64670;DHT22;51080;51.690;5.174;2023-04-03T22:27:56;6.10;51.30
64670;DHT22;51080;51.690;5.174;2023-04-03T22:33:42;6.10;52.20
64670;DHT22;51080;51.690;5.174;2023-04-03T22:39:26;6.00;51.50
64670;DHT22;51080;51.690;5.174;2023-04-03T22:45:10;5.90;51.70
64670;DHT22;51080;51.690;5.174;2023-04-03T22:50:54;5.80;51.70
64670;DHT22;51080;51.690;5.174;2023-04-03T22:57:08;5.80;51.80
64670;DHT22;51080;51.690;5.174;2023-04-03T23:02:53;5.80;52.40
64670;DHT22;51080;51.690;5.174;2023-04-03T23:08:36;5.70;51.80
64670;DHT22;51080;51.690;5.174;2023-04-03T23:14:20;5.70;51.90
64670;DHT22;51080;51.690;5.174;2023-04-03T23:20:05;5.60;52.00
64670;DHT22;51080;51.690;5.174;2023-04-03T23:25:56;5.60;52.10
64670;DHT22;51080;51.690;5.174;2023-04-03T23:31:41;5.50;52.20
64670;DHT22;51080;51.690;5.174;2023-04-03T23:37:24;5.40;52.50
64670;DHT22;51080;51.690;5.174;2023-04-03T23:43:08;5.40;52.50
64670;DHT22;51080;51.690;5.174;2023-04-03T23:48:53;5.30;52.60
64670;DHT22;51080;51.690;5.174;2023-04-03T23:54:36;5.30;52.80
